createdAt,value
2018-05-09T00:01:51.802Z,75.10
2018-05-09T00:04:20.037Z,75.60
2018-05-09T00:06:48.302Z,75.50
2018-05-09T00:09:16.588Z,76.00
2018-05-09T00:11:44.814Z,75.60
2018-05-09T00:14:13.040Z,76.30
2018-05-09T00:16:42.818Z,76.20
2018-05-09T00:19:12.555Z,76.30
2018-05-09T00:24:11.419Z,77.20
2018-05-09T00:29:09.163Z,77.40
2018-05-09T00:31:37.786Z,77.80
2018-05-09T00:34:06.019Z,78.00
2018-05-09T00:36:35.418Z,78.40
2018-05-09T00:39:03.648Z,78.40
2018-05-09T00:41:33.386Z,78.40
2018-05-09T00:44:01.678Z,78.40
2018-05-09T00:46:29.916Z,78.60
2018-05-09T00:51:28.031Z,78.80
2018-05-09T00:54:08.220Z,79.00
2018-05-09T00:56:36.487Z,79.20
2018-05-09T00:59:04.719Z,79.90
2018-05-09T01:01:32.951Z,80.10
2018-05-09T01:04:01.605Z,80.50
2018-05-09T01:06:29.840Z,80.40
2018-05-09T01:08:59.606Z,81.50
2018-05-09T01:16:27.211Z,81.80
2018-05-09T01:18:55.438Z,82.70
2018-05-09T01:21:23.658Z,82.10
2018-05-09T01:23:53.435Z,82.00
2018-05-09T01:26:21.670Z,81.70
2018-05-09T01:28:49.943Z,83.00
2018-05-09T01:31:18.179Z,83.00
2018-05-09T01:33:46.406Z,82.70
2018-05-09T01:36:14.687Z,82.50
2018-05-09T01:38:42.920Z,82.50
2018-05-09T01:43:40.655Z,83.60
2018-05-09T01:46:08.895Z,84.00
2018-05-09T01:48:37.119Z,84.10
2018-05-09T01:51:06.535Z,85.30
2018-05-09T01:53:34.764Z,86.40
2018-05-09T01:58:33.644Z,89.30
2018-05-09T02:01:01.876Z,88.80
2018-05-09T02:03:30.103Z,89.20
2018-05-09T02:05:59.875Z,89.70
2018-05-09T02:08:28.098Z,90.00
2018-05-09T02:10:56.363Z,90.00
2018-05-09T02:13:25.726Z,90.50
2018-05-09T02:15:53.954Z,90.80
2018-05-09T02:18:22.226Z,90.50
2018-05-09T02:20:50.460Z,90.90
2018-05-09T02:23:18.689Z,91.10
2018-05-09T02:25:48.091Z,91.20
2018-05-09T02:28:16.323Z,91.40
2018-05-09T02:30:45.315Z,91.30
2018-05-09T02:33:14.715Z,91.40
2018-05-09T02:35:42.939Z,91.20
2018-05-09T02:38:11.164Z,91.40
2018-05-09T02:43:09.695Z,92.20
2018-05-09T02:45:37.951Z,92.30
2018-05-09T02:48:06.349Z,92.70
2018-05-09T02:50:34.576Z,92.60
2018-05-09T02:53:03.607Z,92.80
2018-05-09T02:55:31.836Z,93.00
2018-05-09T02:58:01.579Z,93.20
2018-05-09T03:00:30.627Z,93.50
2018-05-09T03:02:59.616Z,93.60
2018-05-09T03:05:28.608Z,94.30
2018-05-09T03:07:58.012Z,94.00
2018-05-09T03:10:27.094Z,94.30
2018-05-09T03:12:56.074Z,94.60
2018-05-09T03:15:24.351Z,95.10
2018-05-09T03:17:52.575Z,95.30
2018-05-09T03:20:20.824Z,95.20
2018-05-09T03:22:50.576Z,95.50
2018-05-09T03:25:18.806Z,95.70
2018-05-09T03:27:47.022Z,95.80
2018-05-09T03:30:15.308Z,96.40
2018-05-09T03:32:43.539Z,96.70
2018-05-09T03:35:13.262Z,96.80
2018-05-09T03:37:41.522Z,97.00
2018-05-09T03:40:09.743Z,97.40
2018-05-09T03:42:38.014Z,97.40
2018-05-09T03:45:06.246Z,98.10
2018-05-09T03:47:34.471Z,98.50
2018-05-09T03:50:02.750Z,98.80
2018-05-09T03:52:32.487Z,98.90
2018-05-09T03:55:00.715Z,99.00
2018-05-09T03:57:28.967Z,99.50
2018-05-09T03:59:57.196Z,99.80
2018-05-09T04:02:44.193Z,99.90
2018-05-09T04:05:25.522Z,99.90
2018-05-09T04:08:06.211Z,99.90
2018-05-09T04:10:36.823Z,99.90
2018-05-09T04:13:05.883Z,99.90
2018-05-09T04:15:34.129Z,99.90
2018-05-09T04:18:03.855Z,99.90
2018-05-09T04:20:33.402Z,99.90
2018-05-09T04:23:01.560Z,99.90
2018-05-09T04:25:29.783Z,99.90
2018-05-09T04:27:58.063Z,99.90
2018-05-09T04:30:26.287Z,99.90
2018-05-09T04:32:54.515Z,99.90
2018-05-09T04:35:24.000Z,99.90
2018-05-09T04:40:50.488Z,99.90
2018-05-09T04:43:18.711Z,99.90
2018-05-09T04:45:47.349Z,99.90
2018-05-09T04:48:16.773Z,99.90
2018-05-09T04:50:44.997Z,99.90
2018-05-09T04:53:13.619Z,99.90
2018-05-09T04:58:12.086Z,99.90
2018-05-09T05:00:41.496Z,99.90
2018-05-09T05:03:11.215Z,99.90
2018-05-09T05:05:40.216Z,99.90
2018-05-09T05:08:09.633Z,99.90
2018-05-09T05:10:37.897Z,99.90
2018-05-09T05:13:06.213Z,99.90
2018-05-09T05:15:34.391Z,99.90
2018-05-09T05:20:34.129Z,99.90
2018-05-09T05:25:33.005Z,99.90
2018-05-09T05:28:01.297Z,99.90
2018-05-09T05:30:31.031Z,99.90
2018-05-09T05:33:00.779Z,99.90
2018-05-09T05:35:29.049Z,99.90
2018-05-09T05:37:57.275Z,99.90
2018-05-09T05:40:25.501Z,99.90
2018-05-09T05:42:54.896Z,99.90
2018-05-09T05:45:23.152Z,99.90
2018-05-09T05:47:52.178Z,99.90
2018-05-09T05:50:21.168Z,99.90
2018-05-09T05:52:50.170Z,99.90
2018-05-09T05:55:18.442Z,99.90
2018-05-09T05:57:46.659Z,99.90
2018-05-09T06:00:15.656Z,99.90
2018-05-09T06:02:43.929Z,99.90
2018-05-09T06:05:12.567Z,99.90
2018-05-09T06:07:40.871Z,99.90
2018-05-09T06:12:38.587Z,99.90
2018-05-09T06:15:07.067Z,99.90
2018-05-09T06:17:35.311Z,99.90
2018-05-09T06:20:03.543Z,99.90
2018-05-09T06:22:32.968Z,99.90
2018-05-09T06:25:01.194Z,99.90
2018-05-09T06:27:29.818Z,99.90
2018-05-09T06:29:58.137Z,99.90
2018-05-09T06:32:26.307Z,99.90
2018-05-09T06:34:55.307Z,99.90
2018-05-09T06:39:53.799Z,99.90
2018-05-09T06:42:23.535Z,99.90
2018-05-09T06:44:51.799Z,99.90
2018-05-09T06:47:20.795Z,99.90
2018-05-09T06:49:49.028Z,99.90
2018-05-09T06:52:18.086Z,99.90
2018-05-09T06:54:46.310Z,99.90
2018-05-09T06:57:14.536Z,99.90
2018-05-09T07:02:12.659Z,99.90
2018-05-09T07:04:40.891Z,99.90
2018-05-09T07:07:10.659Z,99.90
2018-05-09T07:09:38.897Z,99.90
2018-05-09T07:12:07.141Z,99.90
2018-05-09T07:14:36.185Z,99.70
2018-05-09T07:17:05.166Z,97.80
2018-05-09T07:22:04.392Z,97.70
2018-05-09T07:27:03.595Z,96.50
2018-05-09T07:29:32.640Z,95.20
2018-05-09T07:32:00.881Z,95.50
2018-05-09T07:34:29.874Z,94.60
2018-05-09T07:36:58.134Z,92.90
2018-05-09T07:39:26.359Z,93.90
2018-05-09T07:41:54.601Z,93.30
2018-05-09T07:44:22.891Z,92.20
2018-05-09T07:46:51.087Z,92.00
2018-05-09T07:51:49.131Z,91.00
2018-05-09T07:54:17.365Z,90.30
2018-05-09T07:56:45.601Z,89.20
2018-05-09T07:59:13.858Z,88.60
2018-05-09T08:04:12.358Z,88.40
2018-05-09T08:06:40.575Z,86.70
2018-05-09T08:09:09.568Z,81.60
2018-05-09T08:11:38.219Z,85.80
2018-05-09T08:14:07.951Z,83.60
2018-05-09T08:16:36.245Z,83.90
2018-05-09T08:19:04.470Z,85.80
2018-05-09T08:21:32.700Z,84.10
2018-05-09T08:24:02.466Z,84.10
2018-05-09T08:26:30.696Z,84.40
2018-05-09T08:28:58.937Z,82.90
2018-05-09T08:31:27.200Z,82.50
2018-05-09T08:33:55.419Z,85.10
2018-05-09T08:36:23.658Z,83.50
2018-05-09T08:43:52.115Z,82.30
2018-05-09T08:46:20.275Z,79.20
2018-05-09T08:48:49.263Z,78.40
2018-05-09T08:51:17.490Z,78.30
2018-05-09T08:53:45.742Z,80.30
2018-05-09T08:56:14.736Z,80.90
2018-05-09T08:58:43.768Z,78.00
2018-05-09T09:01:12.038Z,78.00
2018-05-09T09:03:40.266Z,79.30
2018-05-09T09:06:08.531Z,78.20
2018-05-09T09:08:36.774Z,78.50
2018-05-09T09:11:04.991Z,81.10
2018-05-09T09:13:34.417Z,79.80
2018-05-09T09:16:03.408Z,82.20
2018-05-09T09:18:32.914Z,82.60
2018-05-09T09:23:30.955Z,73.60
2018-05-09T09:25:59.183Z,69.10
2018-05-09T09:28:27.463Z,63.20
2018-05-09T09:30:55.695Z,60.00
2018-05-09T09:33:24.325Z,57.40
2018-05-09T09:35:53.731Z,58.80
2018-05-09T09:38:21.977Z,58.90
2018-05-09T09:40:50.195Z,59.20
2018-05-09T09:43:18.458Z,57.30
2018-05-09T09:50:46.497Z,65.30
2018-05-09T09:53:14.643Z,66.90
2018-05-09T09:55:42.870Z,62.90
2018-05-09T09:58:12.665Z,59.50
2018-05-09T10:05:39.874Z,64.50
2018-05-09T10:08:08.880Z,62.50
2018-05-09T10:10:37.107Z,64.70
2018-05-09T10:13:05.381Z,62.70
2018-05-09T10:15:33.607Z,62.40
2018-05-09T10:18:01.835Z,60.90
2018-05-09T10:20:30.264Z,63.00
2018-05-09T10:22:59.626Z,62.40
2018-05-09T10:25:27.850Z,61.30
2018-05-09T10:27:56.110Z,62.50
2018-05-09T10:30:24.335Z,63.50
2018-05-09T10:32:52.565Z,63.80
2018-05-09T10:37:50.309Z,63.20
2018-05-09T10:40:19.324Z,63.50
2018-05-09T10:42:48.663Z,59.30
2018-05-09T10:47:46.742Z,60.00
2018-05-09T10:50:15.030Z,59.30
2018-05-09T10:52:43.253Z,60.20
2018-05-09T10:55:11.478Z,62.10
2018-05-09T10:57:39.726Z,60.70
2018-05-09T11:00:09.465Z,59.10
2018-05-09T11:02:39.240Z,53.80
2018-05-09T11:05:07.543Z,56.50
2018-05-09T11:07:35.686Z,58.20
2018-05-09T11:10:04.731Z,59.10
2018-05-09T11:12:33.719Z,59.70
2018-05-09T11:15:02.726Z,58.80
2018-05-09T11:20:00.428Z,55.70
2018-05-09T11:24:59.311Z,57.90
2018-05-09T11:27:27.535Z,56.70
2018-05-09T11:29:56.567Z,54.50
2018-05-09T11:32:24.795Z,54.80
2018-05-09T11:34:53.024Z,55.40
2018-05-09T11:37:21.295Z,56.10
2018-05-09T11:39:49.519Z,57.60
2018-05-09T11:42:17.766Z,56.30
2018-05-09T11:47:15.495Z,57.80
2018-05-09T11:49:44.484Z,58.40
2018-05-09T11:52:13.894Z,53.90
2018-05-09T11:54:42.135Z,56.50
2018-05-09T11:57:11.895Z,56.50
2018-05-09T11:59:40.915Z,56.50
2018-05-09T12:02:09.961Z,55.00
2018-05-09T12:04:38.948Z,56.70
2018-05-09T12:07:08.683Z,56.40
2018-05-09T12:09:37.339Z,55.50
2018-05-09T12:12:06.350Z,54.20
2018-05-09T12:14:34.575Z,55.70
2018-05-09T12:17:02.882Z,54.60
2018-05-09T12:22:00.990Z,54.90
2018-05-09T12:24:29.293Z,54.80
2018-05-09T12:26:57.881Z,57.50
2018-05-09T12:29:26.106Z,49.20
2018-05-09T12:34:23.841Z,49.00
2018-05-09T12:36:52.455Z,54.50
2018-05-09T12:39:21.884Z,53.80
2018-05-09T12:41:50.115Z,51.10
2018-05-09T12:44:18.334Z,54.00
2018-05-09T12:46:48.108Z,49.00
2018-05-09T12:49:16.330Z,49.30
2018-05-09T12:51:44.554Z,48.70
2018-05-09T12:54:14.625Z,49.30
2018-05-09T12:56:42.846Z,47.70
2018-05-09T12:59:11.075Z,48.80
2018-05-09T13:01:39.338Z,46.90
2018-05-09T13:04:07.566Z,49.20
2018-05-09T13:06:35.842Z,48.40
2018-05-09T13:09:04.078Z,51.20
2018-05-09T13:16:31.267Z,53.80
2018-05-09T13:19:00.273Z,54.40
2018-05-09T13:21:28.540Z,51.70
2018-05-09T13:23:56.771Z,53.00
2018-05-09T13:26:26.508Z,50.30
2018-05-09T13:28:54.785Z,51.10
2018-05-09T13:31:24.148Z,52.00
2018-05-09T13:33:52.375Z,49.90
2018-05-09T13:36:20.646Z,49.80
2018-05-09T13:38:48.912Z,50.40
2018-05-09T13:41:17.115Z,51.80
2018-05-09T13:43:45.390Z,53.60
2018-05-09T13:46:13.664Z,50.90
2018-05-09T13:48:41.868Z,52.40
2018-05-09T13:51:10.891Z,51.00
2018-05-09T13:53:39.515Z,49.00
2018-05-09T13:58:37.223Z,52.80
2018-05-09T14:01:06.251Z,52.10
2018-05-09T14:06:03.953Z,53.00
2018-05-09T14:08:32.223Z,53.50
2018-05-09T14:11:00.465Z,55.30
2018-05-09T14:13:28.682Z,55.20
2018-05-09T14:15:58.091Z,53.30
2018-05-09T14:18:26.358Z,55.10
2018-05-09T14:20:54.642Z,55.30
2018-05-09T14:23:22.867Z,54.20
2018-05-09T14:25:51.095Z,54.10
2018-05-09T14:28:19.619Z,54.80
2018-05-09T14:30:48.611Z,53.60
2018-05-09T14:35:47.133Z,54.80
2018-05-09T14:38:15.758Z,54.30
2018-05-09T14:40:44.027Z,54.40
2018-05-09T14:43:12.234Z,56.60
2018-05-09T14:45:41.227Z,56.00
2018-05-09T14:48:09.499Z,55.80
2018-05-09T14:53:07.587Z,55.00
2018-05-09T14:55:35.892Z,55.10
2018-05-09T14:58:04.133Z,55.60
2018-05-09T15:00:34.243Z,56.60
2018-05-09T15:03:02.495Z,57.00
2018-05-09T15:05:30.734Z,56.60
2018-05-09T15:07:58.986Z,55.70
2018-05-09T15:10:27.216Z,56.90
2018-05-09T15:15:24.940Z,57.60
2018-05-09T15:17:54.663Z,59.00
2018-05-09T15:20:23.664Z,58.20
2018-05-09T15:22:51.919Z,58.80
2018-05-09T15:25:20.214Z,59.30
2018-05-09T15:27:49.219Z,58.90
2018-05-09T15:30:17.564Z,59.60
2018-05-09T15:32:46.583Z,58.10
2018-05-09T15:35:15.602Z,64.80
2018-05-09T15:37:43.835Z,57.90
2018-05-09T15:40:12.059Z,59.20
2018-05-09T15:42:41.885Z,58.50
2018-05-09T15:45:10.875Z,60.20
2018-05-09T15:52:38.891Z,61.60
2018-05-09T15:55:08.606Z,62.20
2018-05-09T15:57:37.239Z,58.30
2018-05-09T16:00:06.603Z,58.60
2018-05-09T16:05:05.127Z,58.10
2018-05-09T16:07:33.351Z,57.80
2018-05-09T16:10:01.593Z,58.60
2018-05-09T16:12:29.871Z,58.60
2018-05-09T16:14:58.110Z,60.10
2018-05-09T16:17:27.475Z,58.90
2018-05-09T16:19:55.761Z,59.30
2018-05-09T16:22:24.016Z,58.80
2018-05-09T16:24:52.223Z,60.30
2018-05-09T16:27:20.484Z,59.90
2018-05-09T16:29:48.704Z,61.80
2018-05-09T16:32:17.146Z,63.30
2018-05-09T16:34:46.518Z,61.00
2018-05-09T16:37:14.757Z,60.70
2018-05-09T16:39:44.543Z,60.70
2018-05-09T16:42:12.789Z,61.60
2018-05-09T16:44:41.011Z,59.90
2018-05-09T16:47:10.783Z,59.70
2018-05-09T16:49:39.010Z,60.50
2018-05-09T16:52:07.256Z,60.60
2018-05-09T16:54:37.046Z,61.20
2018-05-09T16:57:05.274Z,60.90
2018-05-09T16:59:33.503Z,60.80
2018-05-09T17:02:02.527Z,62.40
2018-05-09T17:07:00.231Z,62.20
2018-05-09T17:09:28.459Z,63.30
2018-05-09T17:11:56.734Z,64.20
2018-05-09T17:14:24.968Z,63.60
2018-05-09T17:16:53.209Z,64.60
2018-05-09T17:19:22.779Z,66.10
2018-05-09T17:22:08.674Z,66.70
2018-05-09T17:24:36.956Z,66.90
2018-05-09T17:27:05.193Z,67.10
2018-05-09T17:29:34.565Z,67.80
2018-05-09T17:32:02.863Z,68.20
2018-05-09T17:34:31.123Z,69.80
2018-05-09T17:36:59.342Z,71.10
2018-05-09T17:39:29.111Z,72.00
2018-05-09T17:41:57.335Z,72.10
2018-05-09T17:44:25.567Z,72.40
2018-05-09T17:46:54.595Z,74.50
2018-05-09T17:49:23.595Z,74.20
2018-05-09T17:51:52.209Z,74.50
2018-05-09T17:54:23.598Z,75.20
2018-05-09T17:56:52.211Z,74.90
2018-05-09T17:59:20.827Z,75.10
2018-05-09T18:04:18.546Z,75.20
2018-05-09T18:06:48.329Z,75.20
2018-05-09T18:09:16.601Z,76.00
2018-05-09T18:11:44.842Z,76.00
2018-05-09T18:14:13.062Z,76.90
2018-05-09T18:16:41.339Z,78.90
2018-05-09T18:19:09.571Z,80.30
2018-05-09T18:21:37.799Z,80.90
2018-05-09T18:24:06.094Z,82.30
2018-05-09T18:26:35.465Z,82.60
2018-05-09T18:29:03.692Z,81.10
2018-05-09T18:31:31.963Z,79.90
2018-05-09T18:34:00.196Z,79.60
2018-05-09T18:36:28.517Z,81.60
2018-05-09T18:38:56.780Z,81.90
2018-05-09T18:41:25.008Z,84.10
2018-05-09T18:43:54.018Z,83.10
2018-05-09T18:46:22.388Z,82.90
2018-05-09T18:48:50.535Z,82.80
2018-05-09T18:51:20.285Z,81.80
2018-05-09T18:56:18.786Z,83.50
2018-05-09T18:58:47.073Z,83.80
2018-05-09T19:01:15.307Z,86.10
2018-05-09T19:03:43.567Z,85.80
2018-05-09T19:06:11.881Z,83.80
2018-05-09T19:08:40.115Z,80.60
2018-05-09T19:11:08.363Z,82.70
2018-05-09T19:13:37.770Z,85.00
2018-05-09T19:16:07.504Z,84.90
2018-05-09T19:18:36.559Z,85.60
2018-05-09T19:21:05.974Z,85.30
2018-05-09T19:23:34.226Z,86.60
2018-05-09T19:26:02.460Z,87.30
2018-05-09T19:28:30.742Z,88.00
2018-05-09T19:30:58.978Z,88.70
2018-05-09T19:33:27.267Z,89.30
2018-05-09T19:35:57.016Z,89.50
2018-05-09T19:38:25.256Z,90.10
2018-05-09T19:40:53.538Z,90.20
2018-05-09T19:43:22.912Z,90.40
2018-05-09T19:48:21.071Z,90.40
2018-05-09T19:50:49.314Z,90.50
2018-05-09T19:53:17.577Z,90.40
2018-05-09T19:58:15.319Z,90.60
2018-05-09T20:00:43.583Z,91.00
2018-05-09T20:03:12.628Z,91.50
2018-05-09T20:08:10.399Z,90.90
2018-05-09T20:10:38.631Z,91.10
2018-05-09T20:13:08.024Z,91.20
2018-05-09T20:15:36.295Z,91.40
2018-05-09T20:18:04.544Z,91.60
2018-05-09T20:20:32.783Z,91.70
2018-05-09T20:23:02.370Z,91.60
2018-05-09T20:25:31.393Z,91.80
2018-05-09T20:27:59.628Z,91.80
2018-05-09T20:30:34.667Z,91.90
2018-05-09T20:33:02.918Z,92.10
2018-05-09T20:35:31.197Z,92.20
2018-05-09T20:38:00.224Z,92.50
2018-05-09T20:40:29.628Z,92.60
2018-05-09T20:42:59.436Z,92.80
2018-05-09T20:45:27.676Z,92.80
2018-05-09T20:47:56.694Z,93.10
2018-05-09T20:50:25.739Z,92.80
2018-05-09T20:52:54.752Z,92.90
2018-05-09T20:57:56.188Z,93.20
2018-05-09T21:00:24.428Z,93.40
2018-05-09T21:02:52.699Z,93.70
2018-05-09T21:05:20.954Z,93.70
2018-05-09T21:07:56.640Z,93.80
2018-05-09T21:10:24.883Z,94.00
2018-05-09T21:15:23.019Z,94.10
2018-05-09T21:17:51.261Z,94.10
2018-05-09T21:20:19.516Z,94.20
2018-05-09T21:22:47.802Z,94.20
2018-05-09T21:25:16.055Z,94.30
2018-05-09T21:27:44.365Z,94.30
2018-05-09T21:35:11.915Z,95.10
2018-05-09T21:40:10.807Z,95.90
2018-05-09T21:45:08.605Z,96.40
2018-05-09T21:47:36.839Z,96.70
2018-05-09T21:50:06.607Z,96.90
2018-05-09T21:52:34.872Z,97.10
2018-05-09T21:55:04.634Z,97.40
2018-05-09T21:57:32.901Z,97.70
2018-05-09T22:00:01.178Z,97.70
2018-05-09T22:02:29.437Z,97.90
2018-05-09T22:04:58.096Z,98.20
2018-05-09T22:07:27.880Z,98.70
2018-05-09T22:09:56.121Z,98.40
2018-05-09T22:12:24.384Z,98.50
2018-05-09T22:14:53.801Z,98.50
2018-05-09T22:17:23.551Z,98.60
2018-05-09T22:19:51.823Z,98.80
2018-05-09T22:22:20.901Z,98.90
2018-05-09T22:24:49.154Z,98.80
2018-05-09T22:27:18.206Z,99.10
2018-05-09T22:29:46.472Z,99.30
2018-05-09T22:34:45.350Z,99.90
2018-05-09T22:37:13.624Z,99.90
2018-05-09T22:39:42.629Z,99.90
2018-05-09T22:42:10.911Z,99.90
2018-05-09T22:44:39.159Z,99.90
2018-05-09T22:47:08.906Z,99.90
2018-05-09T22:49:37.215Z,99.90
2018-05-09T22:52:05.470Z,99.90
2018-05-09T22:54:33.703Z,99.90
2018-05-09T22:57:03.501Z,99.90
2018-05-09T22:59:31.727Z,99.90
2018-05-09T23:02:00.735Z,99.90
2018-05-09T23:04:29.780Z,99.90
2018-05-09T23:06:58.804Z,99.90
2018-05-09T23:14:26.422Z,99.90
2018-05-09T23:16:55.055Z,99.90
2018-05-09T23:19:23.336Z,99.90
2018-05-09T23:21:52.721Z,99.90
2018-05-09T23:24:20.982Z,99.90
2018-05-09T23:26:50.104Z,99.90
2018-05-09T23:29:19.851Z,99.90
2018-05-09T23:31:49.263Z,99.90
2018-05-09T23:34:17.503Z,99.90
2018-05-09T23:36:45.744Z,99.90
2018-05-09T23:39:14.030Z,99.90
2018-05-09T23:41:42.267Z,99.90
2018-05-09T23:44:11.661Z,99.90
2018-05-09T23:46:39.955Z,99.90
2018-05-09T23:49:08.198Z,99.90
2018-05-09T23:51:36.445Z,99.90
2018-05-09T23:54:04.711Z,99.90
2018-05-09T23:56:32.965Z,99.90
2018-05-09T23:59:01.195Z,99.90
